Time;durP1;ratioP1;P1;durP2;ratioP2;P2;SDS_P1;SDS_P2;PMS_P1;PMS_P2;Temp;Humidity;BMP_temperature;BMP_pressure;BME280_temperature;BME280_humidity;BME280_pressure;Samples;Min_cycle;Max_cycle;Signal;HPM_P1;HPM_P2
2022/08/03 00:00:22;;;;;;;3.47;1.90;;;;;;;26.47;34.87;100966.84;5044750;28;20467;-64
2022/08/03 00:02:48;;;;;;;2.88;2.30;;;;;;;26.46;34.66;100962.53;5043068;28;20424;-66
2022/08/03 00:05:13;;;;;;;2.78;1.75;;;;;;;26.46;34.89;100960.59;5045631;28;20873;-66
2022/08/03 00:07:39;;;;;;;2.10;1.70;;;;;;;26.34;34.92;100954.59;5044987;28;20431;-65
2022/08/03 00:10:05;;;;;;;3.95;2.10;;;;;;;26.30;35.13;100957.06;5041693;28;20413;-66
2022/08/03 00:12:31;;;;;;;3.40;1.90;;;;;;;26.29;35.07;100963.59;5044920;28;20772;-66
2022/08/03 00:14:56;;;;;;;2.65;1.80;;;;;;;26.33;34.96;100964.69;5044481;28;20763;-65
2022/08/03 00:17:22;;;;;;;4.75;1.80;;;;;;;26.32;35.14;100956.78;5043769;28;20389;-65
2022/08/03 00:19:47;;;;;;;2.93;1.60;;;;;;;26.27;35.18;100963.06;5044918;28;20874;-66
2022/08/03 00:22:13;;;;;;;2.90;1.73;;;;;;;26.24;35.22;100968.22;5045733;28;20386;-66
2022/08/03 00:24:38;;;;;;;3.43;1.90;;;;;;;26.19;35.38;100969.00;5044296;28;20487;-65
2022/08/03 00:27:04;;;;;;;2.67;1.70;;;;;;;26.15;35.32;100967.09;5045497;28;20388;-66
2022/08/03 00:29:29;;;;;;;2.22;1.67;;;;;;;26.11;35.34;100972.25;5045456;28;20444;-66
2022/08/03 00:31:55;;;;;;;2.15;1.80;;;;;;;26.08;35.30;100975.50;5044537;28;20401;-65
2022/08/03 00:34:20;;;;;;;3.10;1.60;;;;;;;26.07;35.42;100985.56;5044707;28;20787;-66
2022/08/03 00:36:46;;;;;;;3.70;1.50;;;;;;;26.06;35.25;100981.19;5041939;28;20394;-66
2022/08/03 00:39:11;;;;;;;2.70;1.50;;;;;;;26.00;35.48;100982.28;5045064;28;20420;-66
2022/08/03 00:41:37;;;;;;;1.83;1.50;;;;;;;26.00;35.22;100985.00;5045490;28;21078;-66
2022/08/03 00:46:32;;;;;;;3.85;1.75;;;;;;;25.94;35.74;100986.84;5065463;27;2119476;-66
2022/08/03 00:48:57;;;;;;;2.27;1.73;;;;;;;25.95;35.71;100993.13;5135522;27;20403;-66
2022/08/03 00:51:24;;;;;;;4.23;1.90;;;;;;;25.92;35.77;100991.72;5138148;27;20436;-65
2022/08/03 00:53:50;;;;;;;4.00;1.53;;;;;;;25.89;35.95;100992.25;5137977;27;20831;-66
2022/08/03 00:56:16;;;;;;;3.17;1.50;;;;;;;25.92;35.90;100994.41;5137110;27;20466;-65
2022/08/03 00:58:44;;;;;;;3.28;1.60;;;;;;;25.97;35.65;101003.72;5137997;27;20405;-64
2022/08/03 01:01:11;;;;;;;2.47;1.52;;;;;;;25.92;35.70;101001.75;5137814;27;20402;-66
2022/08/03 01:03:36;;;;;;;2.57;1.67;;;;;;;25.90;35.31;101001.22;5130856;27;20399;-65
2022/08/03 01:06:30;;;;;;;3.25;1.70;;;;;;;25.88;35.56;100992.53;5143928;27;20421;-66
2022/08/03 01:09:14;;;;;;;2.88;1.75;;;;;;;25.86;35.69;100994.69;5143515;27;20396;-65
2022/08/03 01:11:53;;;;;;;3.17;1.77;;;;;;;25.80;35.76;100988.38;5135573;27;20419;-65
2022/08/03 01:14:40;;;;;;;2.83;1.73;;;;;;;25.78;35.87;100995.19;5143842;27;20886;-65
2022/08/03 01:17:24;;;;;;;3.20;1.80;;;;;;;25.74;35.88;100993.00;5141609;27;20902;-66
2022/08/03 01:19:59;;;;;;;2.72;1.75;;;;;;;25.74;35.95;101000.31;5141993;27;20393;-66
2022/08/03 01:22:39;;;;;;;2.85;1.92;;;;;;;25.72;36.20;101005.22;5144161;27;20851;-65
2022/08/03 01:25:35;;;;;;;2.28;1.73;;;;;;;25.66;36.32;101007.09;5134341;27;20408;-65
2022/08/03 01:28:31;;;;;;;2.72;1.70;;;;;;;25.58;36.51;101009.47;5132222;27;20486;-65
2022/08/03 01:31:03;;;;;;;2.92;1.63;;;;;;;25.51;36.48;101005.09;5128492;27;20738;-65
2022/08/03 01:33:38;;;;;;;1.83;1.70;;;;;;;25.45;36.65;100998.00;5137509;27;20446;-65
2022/08/03 01:36:12;;;;;;;2.50;1.80;;;;;;;25.43;36.74;100994.75;5132140;27;20383;-65
2022/08/03 01:38:43;;;;;;;1.90;1.70;;;;;;;25.46;36.66;100991.50;5143518;27;20831;-65
2022/08/03 01:41:21;;;;;;;1.90;1.73;;;;;;;25.38;36.83;100992.81;5134699;27;20377;-65
2022/08/03 01:43:49;;;;;;;3.87;1.97;;;;;;;25.38;37.05;100990.09;5134053;27;20391;-66
2022/08/03 01:46:19;;;;;;;4.20;1.60;;;;;;;25.31;37.01;100988.69;5137413;27;20415;-65
2022/08/03 01:48:46;;;;;;;2.85;1.58;;;;;;;25.29;37.13;100999.00;5130810;27;20388;-65
2022/08/03 01:52:49;;;;;;;3.45;1.77;;;;;;;25.21;37.44;100991.31;5064884;28;20848;-65
2022/08/03 01:55:18;;;;;;;2.88;1.80;;;;;;;25.19;37.42;100991.56;5057305;28;20413;-66
2022/08/03 01:57:46;;;;;;;3.20;1.60;;;;;;;25.18;37.38;100992.66;5051732;28;20398;-65
2022/08/03 02:00:13;;;;;;;2.83;1.60;;;;;;;25.20;37.49;101001.34;5050619;28;20396;-64
2022/08/03 02:03:13;;;;;;;2.47;1.85;;;;;;;25.18;37.46;100990.75;5098142;27;20991;-66
2022/08/03 02:05:40;;;;;;;4.10;1.63;;;;;;;25.11;37.83;100997.50;5085833;28;20409;-66
2022/08/03 02:08:07;;;;;;;4.40;1.90;;;;;;;25.07;37.81;100999.09;5071392;28;20486;-66
2022/08/03 02:10:35;;;;;;;1.98;1.60;;;;;;;25.00;38.07;100991.97;5083228;28;20465;-66
2022/08/03 02:13:02;;;;;;;3.55;1.98;;;;;;;25.00;37.98;100985.75;5073039;28;20402;-66
2022/08/03 02:15:30;;;;;;;2.77;1.60;;;;;;;24.98;38.16;100987.91;5085380;28;20421;-66
2022/08/03 02:17:58;;;;;;;4.13;1.90;;;;;;;24.93;38.01;100990.56;5072901;28;20422;-66
2022/08/03 02:20:24;;;;;;;2.50;1.80;;;;;;;24.98;38.06;100993.31;5081715;28;20429;-66
2022/08/03 02:22:49;;;;;;;2.28;1.50;;;;;;;24.98;38.30;100990.63;5070830;28;20467;-66
2022/08/03 02:25:16;;;;;;;3.27;1.77;;;;;;;24.93;38.20;100999.53;5078415;28;20399;-66
2022/08/03 02:29:28;;;;;;;2.33;1.70;;;;;;;24.89;38.57;100992.97;5057347;28;20935;-66
2022/08/03 02:31:59;;;;;;;3.47;1.90;;;;;;;24.91;38.55;101003.56;5044097;28;20409;-65
2022/08/03 02:34:28;;;;;;;4.80;1.90;;;;;;;24.86;38.70;100998.09;5060858;28;20415;-65
2022/08/03 02:36:56;;;;;;;3.17;1.90;;;;;;;24.80;38.79;100999.97;5061733;28;20394;-65
2022/08/03 02:39:25;;;;;;;2.88;2.28;;;;;;;24.75;38.85;101005.34;5055490;28;20924;-65
2022/08/03 02:41:54;;;;;;;3.00;2.05;;;;;;;24.72;39.10;101012.09;5053042;28;20840;-66
2022/08/03 02:44:25;;;;;;;3.30;2.00;;;;;;;24.60;39.40;101008.72;5045618;28;20409;-64
2022/08/03 02:46:55;;;;;;;3.10;1.85;;;;;;;24.54;39.53;101013.28;5045082;28;20415;-65
2022/08/03 02:49:23;;;;;;;1.90;1.60;;;;;;;24.51;39.70;101012.97;5058648;28;20448;-65
2022/08/03 02:51:51;;;;;;;3.60;1.50;;;;;;;24.50;39.65;101012.13;5060674;28;20395;-66
2022/08/03 02:54:18;;;;;;;4.30;2.05;;;;;;;24.49;39.98;101018.63;5049797;28;20400;-64
2022/08/03 02:56:47;;;;;;;5.60;1.75;;;;;;;24.41;40.17;101011.75;5031978;28;20460;-65
2022/08/03 02:59:15;;;;;;;4.37;2.10;;;;;;;24.43;40.08;101017.75;5053052;28;20435;-66
2022/08/03 03:01:43;;;;;;;2.85;1.90;;;;;;;24.38;40.24;101019.56;5049663;28;20496;-65
2022/08/03 03:04:10;;;;;;;4.90;1.90;;;;;;;24.39;40.60;101018.50;5061073;28;20388;-66
2022/08/03 03:06:37;;;;;;;3.38;1.73;;;;;;;24.38;40.55;101030.41;5048864;28;20417;-65
2022/08/03 03:09:03;;;;;;;4.63;1.77;;;;;;;24.32;40.66;101018.69;5059932;28;20413;-66
2022/08/03 03:11:30;;;;;;;2.40;1.65;;;;;;;24.35;40.49;101034.47;5055785;28;20953;-65
2022/08/03 03:13:57;;;;;;;5.75;1.98;;;;;;;24.31;40.67;101037.91;5051261;28;20404;-65
2022/08/03 03:16:25;;;;;;;4.50;1.80;;;;;;;24.27;40.94;101037.59;5059331;28;20483;-64
2022/08/03 03:18:51;;;;;;;2.83;1.92;;;;;;;24.30;40.95;101044.44;5049078;28;20391;-65
2022/08/03 03:21:19;;;;;;;2.80;1.73;;;;;;;24.28;41.12;101046.56;5057927;28;20398;-65
2022/08/03 03:23:45;;;;;;;2.55;1.90;;;;;;;24.26;41.15;101036.00;5053702;28;20819;-64
2022/08/03 03:26:13;;;;;;;2.90;1.70;;;;;;;24.28;41.12;101036.53;5046850;28;20409;-65
2022/08/03 03:28:39;;;;;;;3.45;1.80;;;;;;;24.27;41.04;101040.31;5047397;28;20424;-65
2022/08/03 03:31:06;;;;;;;2.72;1.90;;;;;;;24.31;40.79;101041.47;5045580;28;20413;-66
2022/08/03 03:33:36;;;;;;;5.00;2.08;;;;;;;24.31;41.01;101044.19;5047479;28;20386;-66
2022/08/03 03:36:03;;;;;;;4.57;2.25;;;;;;;24.33;40.87;101042.03;5048504;28;20401;-66
2022/08/03 03:38:29;;;;;;;6.07;2.37;;;;;;;24.38;40.83;101046.66;5059029;28;20898;-66
2022/08/03 03:40:55;;;;;;;11.13;2.38;;;;;;;24.40;41.02;101045.34;5040929;28;20404;-65
2022/08/03 03:43:22;;;;;;;3.85;2.45;;;;;;;24.46;40.84;101050.84;5049894;28;20393;-65
2022/08/03 03:45:48;;;;;;;4.10;2.00;;;;;;;24.52;40.59;101052.50;5038997;28;20442;-65
2022/08/03 03:48:14;;;;;;;5.88;2.17;;;;;;;24.59;40.57;101059.41;5047669;28;20837;-65
2022/08/03 03:50:40;;;;;;;3.83;1.90;;;;;;;24.63;40.44;101067.84;5033477;28;20963;-66
2022/08/03 03:53:09;;;;;;;5.30;2.13;;;;;;;24.70;40.33;101059.50;5033461;28;20522;-65
2022/08/03 03:55:37;;;;;;;4.55;2.30;;;;;;;24.80;40.22;101073.97;5041329;28;20409;-65
2022/08/03 03:58:03;;;;;;;4.13;2.08;;;;;;;24.89;39.98;101070.81;5034158;28;20410;-65
2022/08/03 04:00:29;;;;;;;3.15;1.95;;;;;;;24.98;40.06;101069.28;5028506;28;20406;-66
2022/08/03 04:02:55;;;;;;;4.63;1.95;;;;;;;25.15;39.79;101075.38;5032366;28;20903;-66
2022/08/03 04:11:16;;;;;;;7.27;2.30;;;;;;;25.67;38.78;101083.91;5047484;28;20962;-66
2022/08/03 04:13:49;;;;;;;5.40;2.50;;;;;;;25.84;38.48;101081.84;5033011;28;20395;-65
2022/08/03 04:16:18;;;;;;;10.07;2.50;;;;;;;25.97;38.42;101083.31;5039992;28;20406;-66
2022/08/03 04:18:48;;;;;;;5.95;2.75;;;;;;;26.12;38.26;101096.13;5047129;28;20414;-65
2022/08/03 04:21:17;;;;;;;6.03;2.63;;;;;;;26.21;38.09;101088.28;5031518;28;20988;-66
2022/08/03 04:23:47;;;;;;;3.72;2.47;;;;;;;26.40;37.83;101088.63;5032042;28;20398;-66
2022/08/03 04:26:15;;;;;;;6.37;2.80;;;;;;;26.66;37.35;101092.25;5044438;28;20962;-65
2022/08/03 04:28:44;;;;;;;5.10;2.40;;;;;;;26.91;36.94;101096.94;5031833;28;20523;-66
2022/08/03 04:31:12;;;;;;;6.63;3.20;;;;;;;27.18;36.50;101087.69;5045773;28;20400;-65
2022/08/03 04:33:39;;;;;;;5.82;3.20;;;;;;;27.47;36.34;101090.69;5037011;28;20386;-66
2022/08/03 04:36:08;;;;;;;7.55;3.10;;;;;;;27.83;35.85;101093.34;5030676;28;20399;-65
2022/08/03 04:38:47;;;;;;;7.07;3.10;;;;;;;28.08;35.48;101092.47;5031320;28;20448;-67
2022/08/03 04:41:13;;;;;;;6.30;3.30;;;;;;;27.87;36.01;101107.22;5031105;28;20761;-66
2022/08/03 04:43:40;;;;;;;5.22;3.60;;;;;;;27.68;36.29;101101.53;5031383;28;20888;-67
2022/08/03 04:46:07;;;;;;;6.20;3.20;;;;;;;27.52;36.70;101106.22;5030216;28;20791;-67
2022/08/03 04:48:33;;;;;;;6.28;3.28;;;;;;;27.67;36.09;101110.81;5033081;28;20422;-66
2022/08/03 04:50:59;;;;;;;5.47;2.90;;;;;;;27.62;36.61;101108.91;5044285;28;20398;-66
2022/08/03 04:53:25;;;;;;;7.03;3.38;;;;;;;27.68;36.25;101110.56;5037022;28;20525;-66
2022/08/03 04:55:50;;;;;;;6.95;3.17;;;;;;;27.96;36.00;101113.78;5042850;28;20873;-66
2022/08/03 04:58:16;;;;;;;9.57;3.00;;;;;;;28.35;35.49;101115.81;5045430;28;20392;-67
2022/08/03 05:00:42;;;;;;;5.47;3.10;;;;;;;28.43;35.21;101109.75;5033025;28;21005;-66
2022/08/03 05:03:07;;;;;;;7.97;3.58;;;;;;;28.26;35.53;101120.22;5044791;28;20398;-66
2022/08/03 05:05:33;;;;;;;8.20;3.67;;;;;;;28.27;35.80;101111.78;5040124;28;20778;-66
2022/08/03 05:07:58;;;;;;;12.87;3.57;;;;;;;28.37;35.41;101119.88;5047709;28;20790;-66
2022/08/03 05:10:24;;;;;;;8.52;3.00;;;;;;;28.55;35.51;101117.66;5032630;28;20410;-66
2022/08/03 05:12:51;;;;;;;10.48;3.47;;;;;;;28.86;34.78;101121.00;5046339;28;20547;-66
2022/08/03 05:15:16;;;;;;;6.28;2.72;;;;;;;29.13;34.36;101122.44;5034172;28;20404;-65
2022/08/03 05:17:42;;;;;;;4.70;2.87;;;;;;;30.01;32.67;101122.47;5039877;28;20400;-67
2022/08/03 05:20:08;;;;;;;5.57;2.65;;;;;;;29.81;33.22;101126.25;5035130;28;20414;-66
2022/08/03 05:22:33;;;;;;;7.93;2.90;;;;;;;29.19;34.42;101137.72;5047141;28;20389;-65
2022/08/03 05:25:01;;;;;;;6.55;2.92;;;;;;;29.12;34.74;101131.75;5032886;28;20404;-66
2022/08/03 05:27:26;;;;;;;7.40;3.00;;;;;;;29.03;34.99;101138.88;5041617;28;20430;-66
2022/08/03 05:29:52;;;;;;;4.95;2.80;;;;;;;29.03;34.71;101130.69;5042362;28;20396;-67
2022/08/03 05:32:17;;;;;;;4.00;2.60;;;;;;;29.25;34.91;101138.50;5035472;28;20525;-66
2022/08/03 05:34:43;;;;;;;8.60;2.80;;;;;;;30.66;32.39;101139.16;5032184;28;20396;-66
2022/08/03 05:37:09;;;;;;;3.80;2.60;;;;;;;32.73;29.34;101129.69;5043935;28;20531;-66
2022/08/03 05:39:35;;;;;;;9.65;3.03;;;;;;;32.35;30.02;101134.66;5039377;28;20432;-66
2022/08/03 05:42:46;;;;;;;10.77;4.13;;;;;;;32.67;29.39;101130.94;5079433;27;20905;-62
2022/08/03 05:45:13;;;;;;;9.77;3.43;;;;;;;32.51;29.97;101141.44;5066432;28;20465;-64
2022/08/03 05:47:40;;;;;;;4.75;2.90;;;;;;;35.67;25.50;101138.63;5066648;28;20885;-61
2022/08/03 05:50:05;;;;;;;10.13;4.00;;;;;;;35.43;26.07;101148.28;5066728;28;20487;-64
2022/08/03 05:52:31;;;;;;;12.77;3.20;;;;;;;41.66;19.14;101124.09;5066373;28;20478;-63
2022/08/03 05:54:56;;;;;;;6.93;2.70;;;;;;;45.09;16.06;101129.56;5066775;28;20461;-64
2022/08/03 05:57:22;;;;;;;3.95;2.50;;;;;;;47.31;13.93;101121.69;5066761;28;20434;-63
2022/08/03 05:59:47;;;;;;;5.18;2.55;;;;;;;49.14;12.79;101121.50;5066633;28;20789;-63
2022/08/03 06:02:13;;;;;;;4.80;2.53;;;;;;;50.40;11.43;101114.31;5066177;28;20474;-64
2022/08/03 06:04:38;;;;;;;4.93;2.80;;;;;;;51.33;10.69;101110.53;5066143;28;20415;-63
2022/08/03 06:07:04;;;;;;;4.90;2.70;;;;;;;52.65;9.79;101110.81;5066137;28;20419;-62
2022/08/03 06:09:29;;;;;;;6.77;2.90;;;;;;;53.58;8.81;101116.19;5066252;28;20471;-63
2022/08/03 06:11:55;;;;;;;5.45;2.28;;;;;;;54.57;8.22;101117.75;5065547;28;20400;-63
2022/08/03 06:14:20;;;;;;;5.33;2.67;;;;;;;55.25;7.76;101108.44;5066250;28;20475;-63
2022/08/03 06:16:46;;;;;;;10.00;3.10;;;;;;;55.91;7.39;101108.72;5065909;28;20435;-64
2022/08/03 06:19:12;;;;;;;4.57;2.50;;;;;;;56.50;7.19;101110.44;5066090;28;20384;-65
2022/08/03 06:21:37;;;;;;;4.15;2.70;;;;;;;56.79;7.11;101109.03;5065809;28;20922;-65
2022/08/03 06:24:03;;;;;;;3.83;2.93;;;;;;;56.99;7.15;101114.09;5064327;28;20399;-63
2022/08/03 06:26:28;;;;;;;6.35;2.80;;;;;;;57.44;6.42;101106.50;5064018;28;20428;-64
2022/08/03 06:28:54;;;;;;;3.60;2.90;;;;;;;58.10;5.97;101119.63;5062926;28;20394;-64
2022/08/03 06:31:22;;;;;;;6.30;3.00;;;;;;;58.72;6.22;101111.97;5064476;28;20503;-63
2022/08/03 06:33:48;;;;;;;5.17;3.03;;;;;;;59.15;6.01;101108.63;5065970;28;20427;-63
2022/08/03 06:36:13;;;;;;;5.03;2.90;;;;;;;59.26;5.81;101105.91;5060415;28;20427;-62
2022/08/03 06:38:39;;;;;;;5.32;2.70;;;;;;;58.82;5.81;101108.97;5061874;28;20967;-63
2022/08/03 06:41:04;;;;;;;5.27;3.10;;;;;;;58.75;5.45;101102.41;5062607;28;20502;-64
2022/08/03 06:43:30;;;;;;;3.92;2.90;;;;;;;58.59;5.53;101093.63;5064340;28;20404;-64
2022/08/03 06:45:55;;;;;;;5.57;3.20;;;;;;;59.04;5.82;101103.56;5063392;28;20395;-63
2022/08/03 06:48:21;;;;;;;4.70;3.40;;;;;;;59.55;5.63;101098.44;5065747;28;20392;-63
2022/08/03 06:50:47;;;;;;;4.00;3.00;;;;;;;59.92;4.87;101094.88;5063663;28;20407;-61
2022/08/03 06:53:12;;;;;;;5.67;2.83;;;;;;;60.23;5.24;101090.41;5042101;28;20431;-63
2022/08/03 06:55:38;;;;;;;6.30;3.20;;;;;;;59.65;4.97;101090.47;5050573;28;20461;-63
2022/08/03 06:58:03;;;;;;;5.07;3.30;;;;;;;59.33;5.24;101089.63;5047231;28;20415;-63
2022/08/03 07:00:29;;;;;;;3.57;3.00;;;;;;;58.90;5.65;101093.00;5046932;28;20412;-63
2022/08/03 07:02:55;;;;;;;6.40;3.33;;;;;;;58.55;6.25;101086.03;5050806;28;20438;-64
2022/08/03 07:05:21;;;;;;;5.67;3.33;;;;;;;57.77;6.43;101089.22;5047939;28;20436;-61
2022/08/03 07:07:48;;;;;;;7.00;3.40;;;;;;;57.88;6.16;101096.38;5050893;28;21047;-63
2022/08/03 07:10:13;;;;;;;5.38;3.10;;;;;;;58.23;6.31;101087.91;5051373;28;20428;-64
2022/08/03 07:12:40;;;;;;;4.40;3.10;;;;;;;58.30;6.10;101092.44;5048573;28;20447;-63
2022/08/03 07:15:06;;;;;;;4.15;2.78;;;;;;;57.66;6.39;101088.22;5047926;28;20395;-63
2022/08/03 07:17:34;;;;;;;3.53;2.85;;;;;;;56.91;6.54;101092.94;5048947;28;20400;-63
2022/08/03 07:20:01;;;;;;;4.18;2.80;;;;;;;55.54;7.33;101096.59;5048083;28;20401;-64
2022/08/03 07:22:27;;;;;;;3.13;2.83;;;;;;;52.23;9.17;101086.22;5050885;28;20425;-63
2022/08/03 07:24:52;;;;;;;4.47;2.88;;;;;;;47.99;11.98;101106.19;5050121;28;20393;-65
2022/08/03 07:27:18;;;;;;;4.28;2.65;;;;;;;45.06;14.66;101109.97;5046076;28;20413;-64
2022/08/03 07:29:43;;;;;;;7.93;3.10;;;;;;;43.62;16.06;101114.88;5049066;28;20574;-64
2022/08/03 07:32:09;;;;;;;6.10;2.53;;;;;;;42.82;16.67;101112.50;5048914;28;20404;-63
2022/08/03 07:34:34;;;;;;;4.07;2.60;;;;;;;41.70;17.80;101124.94;5044279;28;20404;-64
2022/08/03 07:37:00;;;;;;;5.30;2.70;;;;;;;40.32;19.38;101131.81;5049971;28;20407;-64
2022/08/03 07:39:25;;;;;;;4.13;2.30;;;;;;;39.63;19.96;101136.13;5049089;28;20435;-64
2022/08/03 07:41:51;;;;;;;3.67;2.67;;;;;;;39.02;20.44;101137.28;5048890;28;20432;-64
2022/08/03 07:44:17;;;;;;;4.37;2.50;;;;;;;38.74;20.88;101143.63;5041767;28;21496;-65
2022/08/03 07:46:43;;;;;;;3.67;2.53;;;;;;;37.86;21.61;101135.75;5049271;28;20480;-64
2022/08/03 07:49:09;;;;;;;3.30;2.30;;;;;;;37.40;22.19;101140.53;5048363;28;20479;-65
2022/08/03 07:51:34;;;;;;;2.70;2.50;;;;;;;36.73;23.26;101130.28;5047074;28;20501;-64
2022/08/03 07:54:01;;;;;;;2.67;2.30;;;;;;;36.44;23.33;101144.91;5048426;28;20401;-64
2022/08/03 07:56:27;;;;;;;4.07;2.30;;;;;;;35.97;23.67;101148.56;5047425;28;20408;-63
2022/08/03 07:58:53;;;;;;;3.05;2.20;;;;;;;35.87;23.74;101148.13;5049178;28;20454;-63
2022/08/03 08:01:19;;;;;;;4.28;2.30;;;;;;;35.54;24.33;101160.56;5048196;28;20416;-63
2022/08/03 08:03:46;;;;;;;4.18;2.60;;;;;;;35.15;24.80;101162.41;5048542;28;20830;-64
2022/08/03 08:06:11;;;;;;;3.33;3.00;;;;;;;34.92;24.98;101156.28;5047121;28;20404;-63
2022/08/03 08:08:38;;;;;;;5.03;2.60;;;;;;;35.12;24.93;101157.56;5048550;28;20412;-63
2022/08/03 08:11:04;;;;;;;3.50;2.40;;;;;;;35.02;25.10;101164.22;5047810;28;20569;-63
2022/08/03 08:13:30;;;;;;;4.72;2.53;;;;;;;34.64;25.98;101175.81;5050476;28;20400;-63
2022/08/03 08:15:55;;;;;;;3.67;2.42;;;;;;;34.26;26.23;101159.88;5047951;28;20409;-65
2022/08/03 08:18:22;;;;;;;3.90;2.40;;;;;;;34.23;26.33;101156.97;5049739;28;20667;-64
2022/08/03 08:20:48;;;;;;;5.47;2.50;;;;;;;34.06;26.67;101158.50;5047572;28;20416;-64
2022/08/03 08:23:14;;;;;;;4.40;2.70;;;;;;;34.03;26.91;101161.91;5049503;28;20887;-63
2022/08/03 08:25:40;;;;;;;5.32;2.35;;;;;;;33.87;27.31;101177.19;5049572;28;20388;-63
2022/08/03 08:28:05;;;;;;;5.07;2.60;;;;;;;33.77;27.37;101161.81;5049103;28;20483;-63
2022/08/03 08:30:32;;;;;;;2.93;2.50;;;;;;;33.99;27.10;101166.41;5045575;28;20487;-63
2022/08/03 08:32:58;;;;;;;4.20;2.60;;;;;;;33.86;27.31;101162.66;5049979;28;20381;-64
2022/08/03 08:35:24;;;;;;;3.08;2.40;;;;;;;33.41;27.63;101172.91;5046376;28;20408;-62
2022/08/03 08:40:34;;;;;;;3.28;2.38;;;;;;;33.41;27.77;101157.22;5049175;28;20403;-63
2022/08/03 08:43:00;;;;;;;3.83;2.70;;;;;;;33.45;27.59;101160.94;5048244;28;20388;-63
2022/08/03 08:45:27;;;;;;;4.07;2.83;;;;;;;33.54;28.13;101150.00;5046746;28;20408;-63
2022/08/03 08:47:54;;;;;;;3.83;2.30;;;;;;;33.53;27.92;101159.41;5049945;28;20814;-64
2022/08/03 08:50:21;;;;;;;2.90;2.40;;;;;;;33.41;27.79;101148.16;5047196;28;20921;-63
2022/08/03 08:52:49;;;;;;;3.97;2.20;;;;;;;33.55;27.44;101146.16;5048973;28;20950;-62
2022/08/03 08:55:20;;;;;;;2.70;2.40;;;;;;;33.61;27.54;101155.06;5049036;28;20894;-63
2022/08/03 08:58:08;;;;;;;4.38;2.20;;;;;;;33.51;27.68;101151.47;5044055;28;20392;-63
2022/08/03 09:00:34;;;;;;;5.30;2.60;;;;;;;33.49;27.34;101147.38;5046270;28;20413;-62
2022/08/03 09:03:00;;;;;;;4.07;2.30;;;;;;;33.37;27.77;101147.97;5047517;28;20416;-63
2022/08/03 09:05:26;;;;;;;3.28;2.30;;;;;;;33.67;27.53;101137.31;5046182;28;20480;-62
2022/08/03 09:07:52;;;;;;;2.80;2.10;;;;;;;33.68;27.59;101141.72;5063154;28;20393;-62
2022/08/03 09:10:20;;;;;;;5.88;2.25;;;;;;;33.45;27.68;101149.16;5047201;28;20910;-63
2022/08/03 09:12:49;;;;;;;5.70;2.25;;;;;;;33.29;27.63;101145.97;5047417;28;20396;-62
2022/08/03 09:15:20;;;;;;;5.57;2.33;;;;;;;33.42;27.68;101133.28;5038645;28;20394;-62
2022/08/03 09:17:47;;;;;;;3.40;2.17;;;;;;;33.47;27.61;101139.44;5046534;28;20906;-62
2022/08/03 09:20:13;;;;;;;4.28;2.10;;;;;;;33.37;27.22;101137.00;5045689;28;21543;-64
2022/08/03 09:23:00;;;;;;;3.50;2.03;;;;;;;33.36;26.96;101140.06;5049038;28;20412;-66
2022/08/03 09:25:37;;;;;;;4.47;2.50;;;;;;;33.57;26.97;101135.63;5043247;28;20838;-63
2022/08/03 09:28:10;;;;;;;2.28;2.03;;;;;;;33.42;26.99;101128.63;5048623;28;20480;-62
2022/08/03 09:30:38;;;;;;;5.93;2.30;;;;;;;33.42;27.12;101138.78;5046354;28;20490;-62
2022/08/03 09:33:07;;;;;;;3.47;2.22;;;;;;;33.29;27.62;101138.53;5048109;28;20943;-62
2022/08/03 09:35:32;;;;;;;3.28;2.30;;;;;;;33.17;27.49;101124.59;5043902;28;21174;-62
2022/08/03 09:38:11;;;;;;;4.45;2.20;;;;;;;33.48;27.42;101126.53;5047393;28;20490;-63
2022/08/03 09:40:38;;;;;;;5.30;2.30;;;;;;;33.34;27.57;101121.13;5044168;28;20910;-64
2022/08/03 09:43:06;;;;;;;3.07;2.00;;;;;;;33.19;27.44;101119.59;5048838;28;20405;-63
2022/08/03 09:45:32;;;;;;;2.40;1.83;;;;;;;33.25;27.36;101109.28;5045295;28;20439;-64
2022/08/03 09:48:30;;;;;;;3.88;2.00;;;;;;;33.49;26.94;101117.16;5042314;28;20397;-63
2022/08/03 09:51:03;;;;;;;2.70;2.10;;;;;;;33.72;27.20;101112.44;5045857;28;20396;-63
2022/08/03 09:53:29;;;;;;;3.92;2.20;;;;;;;33.82;26.72;101105.88;5046881;28;20400;-62
2022/08/03 09:56:01;;;;;;;4.20;2.00;;;;;;;33.76;26.79;101107.13;5048664;28;20393;-62
2022/08/03 09:58:29;;;;;;;3.67;1.75;;;;;;;34.01;26.16;101103.63;5048126;28;20408;-63
2022/08/03 10:01:00;;;;;;;5.40;1.80;;;;;;;34.16;25.62;101113.41;5044990;28;20499;-62
2022/08/03 10:03:31;;;;;;;2.50;1.80;;;;;;;33.96;25.93;101106.56;5047147;28;20458;-63
2022/08/03 10:05:57;;;;;;;3.00;2.03;;;;;;;33.93;25.88;101095.38;5044179;28;20436;-63
2022/08/03 10:08:23;;;;;;;3.80;1.80;;;;;;;34.12;26.13;101106.09;5047585;28;20396;-62
2022/08/03 10:10:53;;;;;;;3.20;1.90;;;;;;;34.27;26.10;101094.69;5044313;28;20440;-63
2022/08/03 10:13:20;;;;;;;3.40;2.10;;;;;;;34.40;25.71;101088.19;5041522;28;20389;-63
2022/08/03 10:15:46;;;;;;;3.38;1.80;;;;;;;34.41;25.35;101089.00;5046628;28;20458;-63
2022/08/03 10:18:12;;;;;;;2.20;1.70;;;;;;;34.30;25.33;101090.47;5047797;28;20412;-62
2022/08/03 10:21:06;;;;;;;3.70;1.73;;;;;;;34.01;25.67;101084.38;5046004;28;20408;-63
2022/08/03 10:23:37;;;;;;;2.90;1.90;;;;;;;33.92;26.19;101091.00;5039191;28;20413;-62
2022/08/03 10:26:05;;;;;;;1.75;1.63;;;;;;;33.86;25.50;101074.63;5045789;28;20404;-62
2022/08/03 10:28:38;;;;;;;3.47;1.70;;;;;;;33.87;25.65;101081.78;5049770;28;20397;-63
2022/08/03 10:31:06;;;;;;;3.15;1.45;;;;;;;33.87;24.99;101076.28;5049764;28;20376;-61
2022/08/03 10:33:37;;;;;;;2.17;1.60;;;;;;;33.83;24.48;101072.53;5051507;28;20907;-63
2022/08/03 10:36:05;;;;;;;2.73;1.40;;;;;;;33.77;24.32;101081.25;5051319;28;20767;-63
2022/08/03 10:38:45;;;;;;;2.22;1.63;;;;;;;33.62;24.44;101071.44;5052837;28;20389;-65
2022/08/03 10:41:12;;;;;;;5.47;1.50;;;;;;;33.62;24.85;101072.28;5051023;28;20424;-64
2022/08/03 10:43:55;;;;;;;1.92;1.60;;;;;;;33.42;24.70;101070.06;5052372;28;20797;-63
2022/08/03 10:46:21;;;;;;;2.92;1.60;;;;;;;33.39;25.00;101067.97;5052073;28;20384;-67
2022/08/03 10:48:49;;;;;;;1.70;1.60;;;;;;;33.29;25.58;101077.28;5051110;28;20377;-65
2022/08/03 10:51:16;;;;;;;2.80;1.80;;;;;;;33.21;25.59;101067.06;5051812;28;20418;-62
2022/08/03 10:53:43;;;;;;;1.90;1.60;;;;;;;33.24;26.04;101060.94;5049814;28;20377;-67
2022/08/03 10:59:45;;;;;;;2.33;1.67;;;;;;;33.52;25.09;101061.56;5034705;28;20750;-65
2022/08/03 11:02:11;;;;;;;2.58;1.70;;;;;;;33.51;24.67;101058.00;5049650;28;20479;-64
2022/08/03 11:04:36;;;;;;;2.40;1.70;;;;;;;33.55;24.96;101049.94;5050752;28;20438;-65
2022/08/03 11:07:25;;;;;;;2.80;1.70;;;;;;;33.52;25.47;101036.81;5051182;28;20392;-63
2022/08/03 11:09:53;;;;;;;3.50;1.90;;;;;;;33.36;25.47;101046.63;5044621;28;20444;-62
2022/08/03 11:12:30;;;;;;;2.67;1.80;;;;;;;33.51;25.51;101038.78;5051236;28;20385;-63
2022/08/03 11:14:58;;;;;;;3.53;2.20;;;;;;;33.65;25.39;101041.41;5050132;28;20389;-64
2022/08/03 11:17:23;;;;;;;1.65;1.40;;;;;;;33.35;24.39;101029.34;5051024;28;20435;-63
2022/08/03 11:19:51;;;;;;;2.28;1.60;;;;;;;33.40;24.58;101026.41;5050578;28;20412;-63
2022/08/03 11:22:18;;;;;;;2.60;1.77;;;;;;;33.29;24.60;101030.59;5050259;28;20466;-63
2022/08/03 11:24:45;;;;;;;3.30;1.90;;;;;;;33.39;25.08;101022.06;5052203;28;20476;-63
2022/08/03 11:27:17;;;;;;;2.20;1.77;;;;;;;33.61;24.59;101023.13;5065044;28;20446;-66
2022/08/03 11:30:06;;;;;;;2.33;1.70;;;;;;;33.65;24.04;101019.41;5049824;28;20975;-63
2022/08/03 11:32:43;;;;;;;6.25;1.70;;;;;;;33.69;24.01;101012.19;5044228;28;20388;-63
2022/08/03 11:35:14;;;;;;;2.92;1.70;;;;;;;33.53;24.31;101009.03;5048081;28;20377;-62
2022/08/03 11:38:00;;;;;;;1.80;1.70;;;;;;;33.59;24.23;101006.94;5049192;28;20449;-62
2022/08/03 11:40:51;;;;;;;3.50;1.80;;;;;;;33.76;23.90;100997.94;5048469;28;20448;-62
2022/08/03 11:43:22;;;;;;;4.20;1.63;;;;;;;33.73;23.66;100998.59;5044333;28;20398;-62
2022/08/03 11:45:58;;;;;;;3.33;1.70;;;;;;;33.75;23.94;100999.09;5048947;28;20383;-62
2022/08/03 11:48:44;;;;;;;2.63;1.60;;;;;;;33.78;23.85;100994.88;5049109;28;20384;-64
2022/08/03 11:51:27;;;;;;;4.22;1.50;;;;;;;33.87;23.78;100992.94;5049026;28;20400;-62